New York, New York
Current Conditions -  °F | °C
As of 11:55 AM on Friday 24 Oct 2014 (Local Time) from KJRB Reporting Station
Broken Clouds Broken Clouds  
Wind Chill: 61°   Ceiling: 3400
Heat Index: 61°   Visibility: 10mi
Dew Point: 46°   Wind: 3mph
Humidity: 59%   Direction: 150°SSE
Pressure: 29.82"   Gusts: NA
Location:  40.71°N, 74.01°W
Report Text: KJRB 241555Z AUTO 15003KT 10SM BKN034 BKN120 16/08 A2982 RMK AO1
Loading
Personal Weather Stations






























Interactive Weather Map New forecast layout! Learn more

10-Day Weather Forecast

Advertisements
Track Severe Weather on mobile